Time;durP1;ratioP1;P1;durP2;ratioP2;P2;SDS_P1;SDS_P2;PMS_P1;PMS_P2;Temp;Humidity;BMP_temperature;BMP_pressure;BME280_temperature;BME280_humidity;BME280_pressure;Samples;Min_cycle;Max_cycle;Signal;HPM_P1;HPM_P2
2021/07/17 00:00:13;;;;;;;7.10;5.15;;;19.30;99.90;;;;;;5076425;28;20427;-61
2021/07/17 00:02:40;;;;;;;7.05;5.05;;;19.30;99.90;;;;;;5077013;28;20463;-63
2021/07/17 00:05:08;;;;;;;7.18;5.80;;;19.40;99.90;;;;;;5077347;28;20529;-61
2021/07/17 00:07:35;;;;;;;7.07;4.20;;;19.30;99.90;;;;;;5076940;28;20419;-61
2021/07/17 00:10:02;;;;;;;6.70;5.68;;;19.40;99.90;;;;;;5076795;28;20423;-62
2021/07/17 00:12:30;;;;;;;8.27;5.93;;;19.40;99.90;;;;;;5075650;28;20858;-62
2021/07/17 00:14:56;;;;;;;8.50;5.63;;;19.30;99.90;;;;;;5075069;28;20911;-62
2021/07/17 00:17:23;;;;;;;8.32;5.20;;;19.20;99.90;;;;;;5073909;28;20426;-62
2021/07/17 00:19:50;;;;;;;10.07;6.50;;;19.20;99.90;;;;;;5074445;28;20853;-62
2021/07/17 00:22:17;;;;;;;8.48;6.00;;;19.00;99.90;;;;;;5074643;28;20514;-61
2021/07/17 00:24:44;;;;;;;8.50;6.10;;;19.00;99.90;;;;;;5075554;28;20423;-62
2021/07/17 00:27:11;;;;;;;8.73;5.95;;;19.00;99.90;;;;;;5076193;28;20451;-61
2021/07/17 00:29:40;;;;;;;8.93;6.32;;;19.00;99.90;;;;;;5075384;28;20839;-62
2021/07/17 00:32:07;;;;;;;6.47;5.47;;;19.10;99.90;;;;;;5075374;28;20419;-62
2021/07/17 00:34:34;;;;;;;8.90;5.85;;;19.10;99.90;;;;;;5075089;28;20519;-61
2021/07/17 00:37:01;;;;;;;8.30;6.55;;;19.10;99.90;;;;;;5074969;28;20529;-61
2021/07/17 00:39:28;;;;;;;7.30;5.22;;;19.10;99.90;;;;;;5074723;28;20522;-61
2021/07/17 00:41:54;;;;;;;7.00;5.13;;;19.20;99.90;;;;;;5074787;28;20458;-61
2021/07/17 00:44:21;;;;;;;8.13;5.40;;;19.20;99.90;;;;;;5076181;28;20450;-61
2021/07/17 00:46:51;;;;;;;8.38;6.90;;;19.20;99.90;;;;;;5093692;28;20516;-62
2021/07/17 00:49:20;;;;;;;9.63;5.78;;;19.20;99.90;;;;;;5096971;28;20536;-61
2021/07/17 00:51:47;;;;;;;9.25;5.60;;;19.10;99.90;;;;;;5096150;28;20504;-62
2021/07/17 00:54:19;;;;;;;10.02;6.40;;;19.10;99.90;;;;;;5095487;28;20438;-62
2021/07/17 00:56:47;;;;;;;8.43;6.00;;;19.10;99.90;;;;;;5095791;28;20726;-61
2021/07/17 00:59:18;;;;;;;8.65;5.70;;;19.20;99.90;;;;;;5096394;28;20459;-62
2021/07/17 01:01:46;;;;;;;6.63;5.18;;;19.20;99.90;;;;;;5096293;28;20507;-62
2021/07/17 01:04:16;;;;;;;7.90;4.93;;;19.20;99.90;;;;;;5095372;28;20516;-62
2021/07/17 01:06:44;;;;;;;8.02;5.10;;;19.20;99.90;;;;;;5095850;28;20504;-62
2021/07/17 01:09:11;;;;;;;8.23;5.60;;;19.20;99.90;;;;;;5095734;28;20505;-62
2021/07/17 01:11:38;;;;;;;6.93;5.32;;;19.10;99.90;;;;;;5096694;28;20425;-62
2021/07/17 01:14:05;;;;;;;7.60;5.07;;;19.20;99.90;;;;;;5096181;28;20422;-61
2021/07/17 01:16:32;;;;;;;6.93;5.72;;;19.20;99.90;;;;;;5096159;28;20430;-62
2021/07/17 01:18:59;;;;;;;8.40;5.40;;;19.00;99.90;;;;;;5095410;28;20790;-62
2021/07/17 01:21:28;;;;;;;7.70;5.50;;;18.90;99.90;;;;;;5095887;28;20421;-62
2021/07/17 01:23:55;;;;;;;7.78;5.60;;;18.90;99.90;;;;;;5095368;28;20418;-62
2021/07/17 01:26:22;;;;;;;9.55;6.20;;;18.90;99.90;;;;;;5096492;28;20416;-62
2021/07/17 01:28:49;;;;;;;7.57;5.90;;;19.00;99.90;;;;;;5095939;28;20418;-62
2021/07/17 01:31:16;;;;;;;8.93;5.13;;;19.00;99.90;;;;;;5094821;28;20437;-62
2021/07/17 01:33:43;;;;;;;10.75;5.65;;;19.00;99.90;;;;;;5095417;28;20414;-62
2021/07/17 01:36:10;;;;;;;8.77;5.78;;;19.00;99.90;;;;;;5095618;28;20440;-62
2021/07/17 01:38:38;;;;;;;10.13;5.35;;;19.00;99.90;;;;;;5095704;28;20833;-62
2021/07/17 01:41:05;;;;;;;8.90;6.20;;;19.00;99.90;;;;;;5096092;28;20524;-62
2021/07/17 01:43:32;;;;;;;7.70;6.03;;;19.00;99.90;;;;;;5095878;28;20504;-62
2021/07/17 01:46:00;;;;;;;8.18;6.25;;;19.00;99.90;;;;;;5094892;28;20432;-62
2021/07/17 01:48:27;;;;;;;7.10;5.20;;;19.00;99.90;;;;;;5095103;28;20414;-62
2021/07/17 01:50:55;;;;;;;10.32;6.07;;;19.00;99.90;;;;;;5095892;28;20520;-62
2021/07/17 01:53:22;;;;;;;8.93;5.60;;;18.80;99.90;;;;;;5095595;28;20504;-62
2021/07/17 01:55:51;;;;;;;11.05;6.38;;;18.70;99.90;;;;;;5095479;28;20444;-62
2021/07/17 01:58:17;;;;;;;7.15;5.60;;;18.60;99.90;;;;;;5095053;28;20418;-62
2021/07/17 02:00:44;;;;;;;8.95;6.00;;;18.70;99.90;;;;;;5094809;28;20540;-62
2021/07/17 02:03:11;;;;;;;8.88;5.22;;;18.80;99.90;;;;;;5095399;28;20417;-62
2021/07/17 02:05:39;;;;;;;7.30;5.07;;;18.90;99.90;;;;;;5095622;28;20464;-62
2021/07/17 02:08:06;;;;;;;7.60;5.40;;;19.00;99.90;;;;;;5095646;28;20789;-62
2021/07/17 02:10:35;;;;;;;8.15;5.78;;;19.00;99.90;;;;;;5095606;28;20429;-62
2021/07/17 02:13:05;;;;;;;7.70;4.75;;;19.00;99.90;;;;;;5095133;28;20421;-62
2021/07/17 02:15:34;;;;;;;7.75;5.00;;;19.00;99.90;;;;;;5094655;28;20426;-62
2021/07/17 02:18:02;;;;;;;6.50;4.68;;;19.00;99.90;;;;;;5095143;28;20927;-62
2021/07/17 02:20:29;;;;;;;8.07;5.57;;;18.90;99.90;;;;;;5095243;28;20532;-62
2021/07/17 02:22:56;;;;;;;9.23;5.82;;;19.00;99.90;;;;;;5094928;28;20424;-62
2021/07/17 02:25:23;;;;;;;10.02;5.78;;;19.00;99.90;;;;;;5094804;28;20432;-62
2021/07/17 02:27:50;;;;;;;8.15;5.80;;;18.90;99.90;;;;;;5095044;28;20409;-62
2021/07/17 02:30:19;;;;;;;9.80;6.60;;;18.80;99.90;;;;;;5095064;28;20425;-62
2021/07/17 02:32:46;;;;;;;11.68;6.90;;;18.70;99.90;;;;;;5094405;28;20422;-62
2021/07/17 02:35:13;;;;;;;9.57;6.38;;;18.60;99.90;;;;;;5093797;28;20432;-62
2021/07/17 02:37:40;;;;;;;8.20;6.53;;;18.60;99.90;;;;;;5093820;28;20732;-62
2021/07/17 02:40:08;;;;;;;11.50;6.75;;;18.70;99.90;;;;;;5094025;28;20720;-63
2021/07/17 02:42:36;;;;;;;11.57;7.32;;;18.50;99.90;;;;;;5093801;28;20420;-62
2021/07/17 02:45:04;;;;;;;10.75;6.93;;;18.50;99.90;;;;;;5094009;28;20432;-62
2021/07/17 02:47:33;;;;;;;8.73;5.70;;;18.50;99.90;;;;;;5095272;28;20508;-63
2021/07/17 02:50:00;;;;;;;9.05;6.22;;;18.50;99.90;;;;;;5095335;28;20513;-63
2021/07/17 02:52:27;;;;;;;8.80;6.93;;;18.50;99.90;;;;;;5095051;28;20512;-62
2021/07/17 02:54:53;;;;;;;9.57;5.93;;;18.50;99.90;;;;;;5094684;28;20849;-62
2021/07/17 02:57:20;;;;;;;9.75;6.35;;;18.50;99.90;;;;;;5094411;28;20436;-62
2021/07/17 02:59:47;;;;;;;8.65;5.70;;;18.60;99.90;;;;;;5095135;28;20516;-63
2021/07/17 03:02:14;;;;;;;9.48;6.28;;;18.70;99.90;;;;;;5094646;28;20462;-63
2021/07/17 03:04:42;;;;;;;8.63;6.15;;;18.80;99.90;;;;;;5094641;28;20425;-62
2021/07/17 03:07:09;;;;;;;8.13;6.63;;;18.70;99.90;;;;;;5094729;28;20420;-62
2021/07/17 03:09:36;;;;;;;8.77;4.80;;;18.70;99.90;;;;;;5094816;28;20426;-63
2021/07/17 03:12:03;;;;;;;8.30;6.50;;;18.70;99.90;;;;;;5094791;28;20790;-63
2021/07/17 03:14:30;;;;;;;8.70;6.10;;;18.50;99.90;;;;;;5094846;28;20911;-63
2021/07/17 03:16:57;;;;;;;10.02;5.60;;;18.50;99.90;;;;;;5095128;28;20510;-63
2021/07/17 03:19:24;;;;;;;9.55;6.85;;;18.50;99.90;;;;;;5094297;28;20456;-62
2021/07/17 03:21:52;;;;;;;8.73;6.00;;;18.50;99.90;;;;;;5094802;28;20699;-62
2021/07/17 03:24:19;;;;;;;9.38;7.30;;;18.60;99.90;;;;;;5094561;28;20714;-63
2021/07/17 03:26:46;;;;;;;9.00;7.00;;;18.40;99.90;;;;;;5096548;28;20732;-62
2021/07/17 03:29:13;;;;;;;8.43;6.07;;;18.30;99.90;;;;;;5098859;28;20418;-62
2021/07/17 03:31:40;;;;;;;10.95;6.40;;;18.10;99.90;;;;;;5098318;28;20896;-62
2021/07/17 03:34:07;;;;;;;8.13;6.53;;;18.30;99.90;;;;;;5098389;28;20445;-62
2021/07/17 03:36:34;;;;;;;9.82;7.57;;;18.40;99.90;;;;;;5098375;28;20865;-62
2021/07/17 03:39:02;;;;;;;11.60;6.82;;;18.30;99.90;;;;;;5098342;28;20503;-62
2021/07/17 03:41:29;;;;;;;7.78;6.32;;;18.40;99.90;;;;;;5096976;28;20414;-62
2021/07/17 03:43:56;;;;;;;8.63;6.72;;;18.50;99.90;;;;;;5097305;28;20428;-63
2021/07/17 03:46:22;;;;;;;10.98;7.20;;;18.40;99.90;;;;;;5097126;28;20422;-63
2021/07/17 03:48:49;;;;;;;7.77;5.90;;;18.40;99.90;;;;;;5096934;28;20421;-62
2021/07/17 03:51:16;;;;;;;9.07;5.90;;;18.40;99.90;;;;;;5097231;28;20859;-63
2021/07/17 03:53:43;;;;;;;7.53;5.43;;;18.60;99.90;;;;;;5096818;28;20497;-63
2021/07/17 03:56:12;;;;;;;10.70;5.83;;;18.70;99.90;;;;;;5097657;28;20450;-63
2021/07/17 03:58:38;;;;;;;7.45;5.60;;;18.60;99.90;;;;;;5097405;28;20513;-63
2021/07/17 04:01:05;;;;;;;6.20;5.60;;;18.70;99.90;;;;;;5096582;28;20804;-63
2021/07/17 04:03:33;;;;;;;8.43;6.10;;;18.80;99.90;;;;;;5096616;28;20418;-63
2021/07/17 04:06:00;;;;;;;7.43;5.32;;;18.80;99.90;;;;;;5097106;28;20430;-63
2021/07/17 04:08:27;;;;;;;7.23;5.50;;;18.80;99.90;;;;;;5096319;28;20414;-63
2021/07/17 04:10:54;;;;;;;11.07;5.38;;;18.70;99.90;;;;;;5096293;28;20728;-63
2021/07/17 04:13:22;;;;;;;9.95;6.32;;;18.70;99.90;;;;;;5096105;28;20506;-63
2021/07/17 04:15:49;;;;;;;6.82;5.32;;;18.60;99.90;;;;;;5096070;28;20417;-63
2021/07/17 04:18:15;;;;;;;9.50;6.43;;;18.60;99.90;;;;;;5096164;28;20433;-63
2021/07/17 04:20:42;;;;;;;7.85;5.53;;;18.70;99.90;;;;;;5096228;28;20591;-63
2021/07/17 04:23:10;;;;;;;11.85;6.53;;;18.80;99.90;;;;;;5096871;28;20492;-63
2021/07/17 04:25:37;;;;;;;9.77;5.70;;;18.70;99.90;;;;;;5097681;28;20458;-63
2021/07/17 04:28:04;;;;;;;8.48;6.57;;;18.60;99.90;;;;;;5097784;28;20476;-63
2021/07/17 04:30:33;;;;;;;9.18;6.38;;;18.60;99.90;;;;;;5097526;28;20837;-63
2021/07/17 04:32:59;;;;;;;10.37;7.50;;;18.50;99.90;;;;;;5097040;28;20484;-63
2021/07/17 04:35:27;;;;;;;9.07;6.10;;;18.40;99.90;;;;;;5097206;28;20430;-62
2021/07/17 04:37:54;;;;;;;12.55;7.40;;;18.40;99.90;;;;;;5095635;28;20437;-63
2021/07/17 04:40:21;;;;;;;9.32;7.40;;;18.40;99.90;;;;;;5096307;28;20429;-63
2021/07/17 04:42:47;;;;;;;7.53;6.15;;;18.40;99.90;;;;;;5096597;28;20568;-63
2021/07/17 04:45:14;;;;;;;9.10;6.57;;;18.40;99.90;;;;;;5096778;28;20497;-64
2021/07/17 04:47:43;;;;;;;8.27;6.53;;;18.40;99.90;;;;;;5096269;28;20413;-63
2021/07/17 04:50:10;;;;;;;8.90;6.75;;;18.50;99.90;;;;;;5096223;28;20710;-63
2021/07/17 04:52:37;;;;;;;8.80;5.75;;;18.50;99.90;;;;;;5096474;28;20905;-63
2021/07/17 04:55:05;;;;;;;10.55;7.53;;;18.70;99.90;;;;;;5096881;28;20430;-62
2021/07/17 04:57:32;;;;;;;8.45;5.63;;;18.80;99.90;;;;;;5096714;28;20865;-63
2021/07/17 04:59:58;;;;;;;9.05;7.10;;;18.80;99.90;;;;;;5096579;28;20425;-63
2021/07/17 05:02:25;;;;;;;7.22;5.78;;;18.80;99.90;;;;;;5096829;28;20441;-63
2021/07/17 05:04:53;;;;;;;7.97;5.90;;;18.80;99.90;;;;;;5096472;28;20520;-63
2021/07/17 05:07:20;;;;;;;8.70;6.05;;;18.80;99.90;;;;;;5096694;28;20418;-63
2021/07/17 05:09:47;;;;;;;7.18;5.10;;;18.80;99.90;;;;;;5096470;28;20425;-63
2021/07/17 05:12:14;;;;;;;8.57;6.03;;;18.90;99.90;;;;;;5096579;28;20418;-63
2021/07/17 05:14:41;;;;;;;7.97;5.80;;;18.70;99.90;;;;;;5096011;28;20841;-63
2021/07/17 05:17:08;;;;;;;6.65;5.30;;;18.60;99.90;;;;;;5096351;28;20436;-63
2021/07/17 05:19:34;;;;;;;5.88;5.28;;;18.60;99.90;;;;;;5095678;28;20534;-63
2021/07/17 05:22:03;;;;;;;9.27;6.15;;;18.60;99.90;;;;;;5095959;28;20501;-63
2021/07/17 05:24:30;;;;;;;9.02;5.82;;;18.70;99.90;;;;;;5095934;28;20430;-63
2021/07/17 05:26:57;;;;;;;6.80;5.50;;;18.80;99.90;;;;;;5096585;28;20489;-63
2021/07/17 05:29:23;;;;;;;6.88;5.50;;;18.90;99.90;;;;;;5096107;28;20426;-63
2021/07/17 05:31:53;;;;;;;7.45;5.72;;;18.90;99.90;;;;;;5096234;28;20508;-63
2021/07/17 05:34:20;;;;;;;10.40;6.47;;;18.70;99.90;;;;;;5087553;28;20430;-60
2021/07/17 05:36:47;;;;;;;8.13;5.47;;;18.60;99.90;;;;;;5096024;28;20704;-61
2021/07/17 05:39:15;;;;;;;9.45;6.63;;;18.70;99.90;;;;;;5094325;28;20912;-60
2021/07/17 05:41:42;;;;;;;7.05;5.40;;;18.80;99.90;;;;;;5093945;28;20728;-61
2021/07/17 05:44:09;;;;;;;7.60;5.40;;;18.90;99.90;;;;;;5091938;28;20501;-61
2021/07/17 05:46:36;;;;;;;6.83;5.60;;;19.00;99.90;;;;;;5093850;28;20497;-61
2021/07/17 05:49:03;;;;;;;7.38;5.00;;;19.10;99.90;;;;;;5092938;28;20797;-62
2021/07/17 05:51:30;;;;;;;6.03;5.28;;;19.20;99.90;;;;;;5095049;28;20417;-61
2021/07/17 05:53:56;;;;;;;5.57;3.45;;;19.30;99.90;;;;;;5094882;28;20493;-61
2021/07/17 05:56:25;;;;;;;6.77;4.60;;;19.50;99.90;;;;;;5095602;28;20457;-61
2021/07/17 05:58:51;;;;;;;6.80;4.40;;;19.50;99.90;;;;;;5095087;28;20521;-61
2021/07/17 06:01:18;;;;;;;7.68;5.00;;;19.50;99.90;;;;;;5094323;28;20426;-62
2021/07/17 06:03:46;;;;;;;5.63;4.30;;;19.50;99.90;;;;;;5095271;28;20418;-61
2021/07/17 06:06:13;;;;;;;6.53;4.15;;;19.60;99.90;;;;;;5095442;28;20440;-62
2021/07/17 06:08:40;;;;;;;6.13;4.03;;;19.60;99.90;;;;;;5094750;28;20461;-62
2021/07/17 06:11:07;;;;;;;4.97;3.70;;;19.70;99.90;;;;;;5094929;28;20793;-61
2021/07/17 06:13:35;;;;;;;4.95;2.75;;;19.90;99.90;;;;;;5095573;28;20421;-62
2021/07/17 06:16:02;;;;;;;6.25;4.53;;;20.00;99.90;;;;;;5095688;28;20425;-63
2021/07/17 06:18:29;;;;;;;6.73;4.97;;;20.10;99.90;;;;;;5096194;28;20813;-62
2021/07/17 06:20:58;;;;;;;6.93;4.80;;;20.00;99.90;;;;;;5095259;28;20453;-62
2021/07/17 06:23:25;;;;;;;6.70;4.60;;;20.00;99.90;;;;;;5095771;28;20479;-62
2021/07/17 06:25:52;;;;;;;6.03;3.60;;;20.00;99.90;;;;;;5095882;28;20509;-62
2021/07/17 06:28:19;;;;;;;4.85;4.15;;;20.10;99.90;;;;;;5095668;28;20453;-62
2021/07/17 06:30:47;;;;;;;5.13;3.58;;;20.10;99.90;;;;;;5096034;28;20721;-62
2021/07/17 06:33:14;;;;;;;5.40;4.38;;;20.20;99.90;;;;;;5095641;28;20847;-62
2021/07/17 06:35:41;;;;;;;7.15;3.70;;;20.20;99.90;;;;;;5095202;28;20792;-62
2021/07/17 06:38:08;;;;;;;4.25;3.80;;;20.20;99.90;;;;;;5095134;28;20484;-62
2021/07/17 06:40:34;;;;;;;5.53;3.40;;;20.30;99.90;;;;;;5094429;28;20458;-62
2021/07/17 06:43:01;;;;;;;5.78;4.38;;;20.10;99.90;;;;;;5094225;28;20401;-63
2021/07/17 06:45:29;;;;;;;7.25;4.88;;;20.00;99.90;;;;;;5093808;28;20548;-62
2021/07/17 06:47:57;;;;;;;4.53;3.67;;;19.80;99.90;;;;;;5094224;28;20413;-63
2021/07/17 06:50:24;;;;;;;6.25;4.20;;;20.00;99.90;;;;;;5093854;28;20544;-63
2021/07/17 06:52:51;;;;;;;4.75;3.50;;;20.20;99.90;;;;;;5093276;28;20417;-63
2021/07/17 06:55:18;;;;;;;4.93;3.78;;;20.30;99.90;;;;;;5091129;28;20824;-58
2021/07/17 06:57:45;;;;;;;7.30;5.13;;;20.30;99.90;;;;;;5086805;28;20422;-59
2021/07/17 07:00:15;;;;;;;4.75;3.75;;;20.30;99.90;;;;;;5090376;28;20745;-59
2021/07/17 07:02:42;;;;;;;4.35;3.55;;;20.30;99.90;;;;;;5088613;28;20737;-59
2021/07/17 07:05:12;;;;;;;5.57;3.92;;;20.40;99.90;;;;;;5095389;28;20508;-60
2021/07/17 07:07:39;;;;;;;6.53;4.28;;;20.60;99.90;;;;;;5092969;28;20418;-60
2021/07/17 07:10:08;;;;;;;5.50;4.30;;;20.60;99.90;;;;;;5094320;28;20433;-60
2021/07/17 07:12:37;;;;;;;4.22;3.78;;;20.60;99.90;;;;;;5094511;28;20418;-59
2021/07/17 07:15:06;;;;;;;5.10;4.60;;;20.50;99.90;;;;;;5086670;28;20434;-59
2021/07/17 07:17:33;;;;;;;5.80;3.77;;;20.50;99.90;;;;;;5094252;28;20759;-59
2021/07/17 07:20:00;;;;;;;6.53;3.92;;;20.60;99.90;;;;;;5095372;28;20772;-60
2021/07/17 07:22:30;;;;;;;7.93;5.45;;;20.80;99.90;;;;;;5095945;28;20419;-60
2021/07/17 07:24:57;;;;;;;8.18;4.25;;;20.70;99.90;;;;;;5084832;28;20801;-61
2021/07/17 07:27:24;;;;;;;8.48;5.22;;;20.70;99.90;;;;;;5085492;28;20893;-60
2021/07/17 07:29:51;;;;;;;9.35;5.65;;;20.20;99.90;;;;;;5090866;28;20427;-60
2021/07/17 07:32:18;;;;;;;6.45;4.35;;;19.80;99.90;;;;;;5094794;28;20421;-60
2021/07/17 07:34:45;;;;;;;6.88;5.32;;;20.00;99.90;;;;;;5094607;28;20937;-61
2021/07/17 07:37:12;;;;;;;7.55;5.50;;;20.10;99.90;;;;;;5077284;28;20513;-60
2021/07/17 07:39:40;;;;;;;7.75;4.60;;;19.80;99.90;;;;;;5090211;28;20512;-60
2021/07/17 07:42:07;;;;;;;5.97;4.60;;;19.80;99.90;;;;;;5080609;28;20724;-60
2021/07/17 07:44:34;;;;;;;6.97;4.00;;;20.00;99.90;;;;;;5077039;28;20710;-60
2021/07/17 07:47:01;;;;;;;5.90;3.53;;;20.20;99.90;;;;;;5076757;28;20510;-59
2021/07/17 07:49:28;;;;;;;6.18;4.95;;;20.40;99.90;;;;;;5096996;28;20525;-62
2021/07/17 07:51:55;;;;;;;5.32;4.72;;;20.60;99.90;;;;;;5095653;28;20464;-60
2021/07/17 07:54:21;;;;;;;6.47;4.60;;;20.60;99.90;;;;;;5092922;28;20468;-61
2021/07/17 07:56:50;;;;;;;6.30;4.10;;;20.70;99.90;;;;;;5096667;28;20418;-61
2021/07/17 07:59:16;;;;;;;5.32;4.47;;;20.70;99.90;;;;;;5094074;28;20665;-61
2021/07/17 08:01:43;;;;;;;4.95;3.55;;;20.70;99.90;;;;;;5095117;28;20729;-61
2021/07/17 08:04:11;;;;;;;6.50;3.90;;;20.50;99.90;;;;;;5086565;28;20910;-60
2021/07/17 08:06:38;;;;;;;5.95;4.72;;;20.40;99.90;;;;;;5087289;28;20479;-60
2021/07/17 08:09:05;;;;;;;4.95;4.22;;;20.40;99.90;;;;;;5092749;28;20425;-60
2021/07/17 08:11:32;;;;;;;8.70;5.50;;;20.40;99.90;;;;;;5094381;28;20513;-60
2021/07/17 08:14:00;;;;;;;8.63;5.20;;;20.40;99.90;;;;;;5076580;28;20511;-60
2021/07/17 08:16:27;;;;;;;7.35;5.00;;;20.30;99.90;;;;;;5075492;28;20433;-60
2021/07/17 08:18:54;;;;;;;4.93;3.60;;;20.20;99.90;;;;;;5090936;28;20520;-60
2021/07/17 08:21:21;;;;;;;6.30;5.30;;;20.30;99.90;;;;;;5094823;28;20649;-60
2021/07/17 08:23:48;;;;;;;6.73;5.20;;;20.30;99.90;;;;;;5095983;28;20855;-60
2021/07/17 08:29:06;;;;;;;8.82;5.13;;;20.30;99.90;;;;;;5071980;28;20499;-60
2021/07/17 08:31:33;;;;;;;7.90;6.25;;;20.30;99.90;;;;;;5075116;28;20512;-60
2021/07/17 08:34:00;;;;;;;6.55;4.80;;;20.30;99.90;;;;;;5074615;28;20873;-60
2021/07/17 08:36:27;;;;;;;6.90;6.10;;;20.40;99.90;;;;;;5074894;28;20798;-62
2021/07/17 08:38:54;;;;;;;6.88;5.60;;;20.50;99.90;;;;;;5093770;28;21109;-59
2021/07/17 08:41:26;;;;;;;6.55;5.45;;;20.60;99.90;;;;;;5090816;28;20418;-60
2021/07/17 08:43:55;;;;;;;6.25;4.68;;;20.60;99.90;;;;;;5090350;28;20437;-60
2021/07/17 08:46:24;;;;;;;6.40;5.15;;;20.70;99.90;;;;;;5090728;28;20430;-59
2021/07/17 08:48:52;;;;;;;6.97;4.38;;;20.80;99.90;;;;;;5087759;28;20841;-60
2021/07/17 08:51:20;;;;;;;7.20;5.13;;;21.00;99.90;;;;;;5090072;28;20471;-60
2021/07/17 08:53:48;;;;;;;7.97;4.55;;;21.10;99.90;;;;;;5089915;28;20521;-61
2021/07/17 08:56:16;;;;;;;6.13;5.00;;;21.20;99.90;;;;;;5091180;28;20513;-61
2021/07/17 08:58:43;;;;;;;6.43;4.85;;;21.50;99.90;;;;;;5058258;28;20778;-60
2021/07/17 09:01:10;;;;;;;6.18;4.13;;;21.60;99.90;;;;;;5084360;28;20430;-60
2021/07/17 09:03:38;;;;;;;5.47;3.90;;;21.50;99.90;;;;;;5089182;28;20414;-60
2021/07/17 09:06:07;;;;;;;4.70;4.25;;;21.60;99.90;;;;;;5090366;28;20864;-61
2021/07/17 09:08:34;;;;;;;5.88;3.92;;;21.80;99.90;;;;;;5091193;28;20505;-60
2021/07/17 09:11:01;;;;;;;7.68;3.33;;;21.80;99.90;;;;;;5089025;28;20477;-60
2021/07/17 09:13:30;;;;;;;5.60;3.70;;;22.00;99.90;;;;;;5087349;28;20805;-60
2021/07/17 09:16:00;;;;;;;4.82;3.17;;;22.10;99.90;;;;;;5089085;28;20459;-59
2021/07/17 09:18:30;;;;;;;5.72;3.65;;;22.00;99.90;;;;;;5085426;28;20479;-60
2021/07/17 09:21:06;;;;;;;5.68;4.07;;;22.00;99.90;;;;;;5092106;28;20507;-59
2021/07/17 09:23:34;;;;;;;5.13;3.72;;;22.00;99.90;;;;;;5093159;28;20414;-59
2021/07/17 09:26:09;;;;;;;4.97;4.10;;;22.10;99.90;;;;;;5092092;28;20516;-59
2021/07/17 09:28:36;;;;;;;5.90;3.75;;;22.00;99.90;;;;;;5088581;28;20440;-59
2021/07/17 09:31:05;;;;;;;4.60;4.20;;;21.80;99.90;;;;;;5089735;28;20433;-59
2021/07/17 09:33:32;;;;;;;7.05;4.60;;;21.60;99.90;;;;;;5093277;28;20424;-59
2021/07/17 09:36:01;;;;;;;5.47;4.28;;;21.50;99.90;;;;;;5092987;28;20472;-59
2021/07/17 09:38:32;;;;;;;4.50;3.70;;;21.50;99.90;;;;;;5076015;28;20519;-60
2021/07/17 09:41:02;;;;;;;4.32;3.80;;;21.40;99.90;;;;;;5072747;28;20435;-61
2021/07/17 09:43:34;;;;;;;4.55;3.90;;;21.50;99.90;;;;;;5071723;28;20424;-60
2021/07/17 09:46:02;;;;;;;6.43;3.70;;;21.50;99.90;;;;;;5074086;28;20435;-60
2021/07/17 09:48:31;;;;;;;5.27;4.77;;;21.50;99.90;;;;;;5073839;28;20416;-61
2021/07/17 09:50:59;;;;;;;4.73;3.80;;;21.60;99.90;;;;;;5074192;28;20430;-60
2021/07/17 09:53:45;;;;;;;6.00;3.53;;;21.70;99.90;;;;;;5074046;28;20414;-60
2021/07/17 09:56:14;;;;;;;7.05;3.00;;;21.70;99.90;;;;;;5074757;28;20438;-60
2021/07/17 09:58:41;;;;;;;5.57;3.90;;;21.80;99.90;;;;;;5074837;28;20823;-60
2021/07/17 10:01:33;;;;;;;5.88;3.78;;;21.80;99.90;;;;;;5073116;28;20431;-60
2021/07/17 10:04:05;;;;;;;7.95;3.60;;;21.70;99.90;;;;;;5091538;28;20424;-60
2021/07/17 10:06:43;;;;;;;5.57;4.10;;;21.70;99.90;;;;;;5093716;28;20453;-61
2021/07/17 10:09:30;;;;;;;4.00;3.50;;;21.90;99.90;;;;;;5093378;28;20425;-60
2021/07/17 10:12:00;;;;;;;6.10;2.95;;;22.10;99.90;;;;;;5093322;28;20487;-60
2021/07/17 10:14:28;;;;;;;3.72;3.42;;;22.10;99.90;;;;;;5091834;28;21031;-60
2021/07/17 10:16:58;;;;;;;6.55;3.58;;;22.30;99.90;;;;;;5092306;28;20860;-60
2021/07/17 10:19:27;;;;;;;4.73;3.60;;;22.50;99.90;;;;;;5091774;28;20525;-61
2021/07/17 10:21:55;;;;;;;4.82;3.95;;;22.70;99.90;;;;;;5078365;28;20514;-60
2021/07/17 10:24:24;;;;;;;5.53;3.90;;;22.70;99.90;;;;;;5079602;28;20436;-60
2021/07/17 10:26:53;;;;;;;5.70;3.85;;;22.60;99.90;;;;;;5082716;28;20421;-59
2021/07/17 10:29:22;;;;;;;4.90;3.60;;;22.60;99.90;;;;;;5067733;28;20685;-60
2021/07/17 10:31:50;;;;;;;5.97;4.30;;;22.60;99.90;;;;;;5083006;28;20415;-60
2021/07/17 10:34:21;;;;;;;7.80;5.30;;;22.50;99.90;;;;;;5073043;28;20516;-60
2021/07/17 10:36:55;;;;;;;6.40;4.20;;;22.30;99.90;;;;;;5072935;28;20777;-60
2021/07/17 10:39:27;;;;;;;6.53;4.78;;;22.10;99.90;;;;;;5072774;28;20638;-60
2021/07/17 10:41:54;;;;;;;7.00;5.28;;;22.10;99.90;;;;;;5081233;28;20526;-60
2021/07/17 10:44:46;;;;;;;7.10;4.72;;;22.20;99.90;;;;;;5079217;28;20505;-60
2021/07/17 10:47:14;;;;;;;6.97;4.80;;;22.40;99.90;;;;;;5075374;28;20521;-60
2021/07/17 10:49:43;;;;;;;8.43;5.25;;;22.60;99.90;;;;;;5092675;28;20604;-60
2021/07/17 10:52:11;;;;;;;7.05;4.72;;;22.50;99.90;;;;;;5075400;28;20710;-60
2021/07/17 10:54:39;;;;;;;4.65;4.18;;;22.50;99.90;;;;;;5072196;28;20469;-60
2021/07/17 10:57:07;;;;;;;4.72;3.70;;;22.60;99.90;;;;;;5082839;28;20748;-60
2021/07/17 10:59:48;;;;;;;6.15;4.00;;;22.50;99.90;;;;;;5093138;28;20864;-60
2021/07/17 11:02:21;;;;;;;8.70;5.25;;;22.50;99.90;;;;;;5092882;28;20418;-60
2021/07/17 11:04:51;;;;;;;5.60;4.07;;;22.40;99.90;;;;;;5090175;28;20912;-59
2021/07/17 11:07:39;;;;;;;8.30;6.07;;;22.50;99.90;;;;;;5072014;28;20423;-60
2021/07/17 11:10:20;;;;;;;7.15;5.30;;;22.60;99.90;;;;;;5093781;28;20516;-59
2021/07/17 11:12:56;;;;;;;4.95;4.40;;;22.60;99.90;;;;;;5091845;28;20429;-59
2021/07/17 11:15:40;;;;;;;4.27;3.87;;;22.70;99.90;;;;;;5083498;28;20803;-59
2021/07/17 11:18:30;;;;;;;3.50;3.20;;;23.10;99.90;;;;;;5076579;28;20417;-59
2021/07/17 11:21:00;;;;;;;4.43;4.03;;;23.40;99.90;;;;;;5090197;28;20736;-59
2021/07/17 11:23:42;;;;;;;4.70;3.85;;;23.70;99.90;;;;;;5092164;28;21029;-59
2021/07/17 11:26:18;;;;;;;6.60;3.72;;;23.50;99.90;;;;;;5091248;28;20496;-60
2021/07/17 11:29:07;;;;;;;5.18;4.68;;;23.20;99.90;;;;;;5068663;28;20422;-60
2021/07/17 11:31:39;;;;;;;5.25;4.00;;;23.00;99.90;;;;;;5084274;28;20959;-59
2021/07/17 11:34:49;;;;;;;6.28;5.40;;;23.00;99.90;;;;;;5081552;28;20418;-59
2021/07/17 11:37:27;;;;;;;4.32;3.88;;;22.90;99.90;;;;;;5080228;28;20529;-59
2021/07/17 11:40:01;;;;;;;5.97;4.30;;;22.80;99.90;;;;;;5092988;28;20491;-60
2021/07/17 11:42:36;;;;;;;5.68;5.05;;;23.00;99.90;;;;;;5080535;28;21057;-60
2021/07/17 11:45:04;;;;;;;4.90;4.20;;;22.90;99.90;;;;;;5098402;28;20432;-60
2021/07/17 11:48:40;;;;;;;4.88;3.92;;;22.90;99.90;;;;;;5101863;28;20845;-59
2021/07/17 12:20:31;;;;;;;4.60;4.20;;;23.20;99.90;;;;;;5132819;27;20395;-60
2021/07/17 12:31:07;;;;;;;5.53;3.92;;;23.70;99.90;;;;;;4960391;28;20518;-62
2021/07/17 12:34:18;;;;;;;3.70;3.40;;;23.80;99.90;;;;;;5005485;28;21039;-61
2021/07/17 12:44:01;;;;;;;5.55;3.78;;;24.50;99.90;;;;;;5030259;28;20462;-62
2021/07/17 12:46:30;;;;;;;6.25;4.68;;;24.30;99.90;;;;;;5030833;28;20468;-62
2021/07/17 12:48:58;;;;;;;5.43;4.35;;;24.10;99.90;;;;;;5107204;28;20531;-64
2021/07/17 12:51:27;;;;;;;4.80;4.40;;;24.00;99.90;;;;;;5128230;27;20474;-63
2021/07/17 12:53:57;;;;;;;5.10;4.60;;;23.80;99.90;;;;;;5127750;27;20427;-66
2021/07/17 12:56:44;;;;;;;5.00;4.60;;;23.70;99.90;;;;;;5128478;27;20423;-62
2021/07/17 12:59:15;;;;;;;5.80;4.72;;;23.70;99.90;;;;;;5129581;27;20434;-62
2021/07/17 13:01:48;;;;;;;3.83;3.13;;;23.30;99.90;;;;;;5127218;27;20815;-63
2021/07/17 13:04:16;;;;;;;5.00;4.50;;;23.50;99.90;;;;;;5126893;27;20427;-62
2021/07/17 13:06:54;;;;;;;5.30;4.80;;;23.70;99.90;;;;;;5125831;27;20470;-62
2021/07/17 13:09:27;;;;;;;5.40;4.22;;;24.00;99.90;;;;;;5123989;27;20435;-62
2021/07/17 13:11:55;;;;;;;7.05;5.97;;;24.10;99.90;;;;;;5117895;27;20455;-59
2021/07/17 13:14:24;;;;;;;5.32;4.80;;;23.70;99.90;;;;;;5109511;28;20432;-59
2021/07/17 13:16:53;;;;;;;3.73;3.43;;;23.70;99.90;;;;;;5125287;27;20435;-59
2021/07/17 13:19:22;;;;;;;4.07;3.67;;;23.90;99.90;;;;;;5119316;28;20412;-59
2021/07/17 13:21:50;;;;;;;4.13;3.72;;;24.10;99.90;;;;;;5110656;28;20529;-59
2021/07/17 13:24:20;;;;;;;6.63;4.90;;;24.20;99.90;;;;;;5090788;28;20429;-58
2021/07/17 13:26:53;;;;;;;4.07;3.67;;;24.30;99.90;;;;;;5094593;28;20914;-59
2021/07/17 13:29:24;;;;;;;4.13;3.72;;;24.20;99.90;;;;;;5114478;28;20435;-59
2021/07/17 13:31:54;;;;;;;4.30;3.40;;;24.00;99.90;;;;;;5113290;28;20423;-60
2021/07/17 13:34:23;;;;;;;4.30;3.90;;;23.90;99.90;;;;;;5112954;28;20470;-59
2021/07/17 13:36:55;;;;;;;3.65;3.33;;;24.10;99.90;;;;;;5114437;28;20413;-59
2021/07/17 13:39:24;;;;;;;4.65;3.95;;;24.40;99.90;;;;;;5114134;28;20419;-63
2021/07/17 13:42:05;;;;;;;5.70;4.70;;;24.70;99.90;;;;;;5114011;28;20426;-65